Tiempo atmosférico en la estación meteorológica de Sariñena, Depósito Agua, Huesca (302 m.)



Fecha
DESCASC
Temp. máxima en grados centígrados (hora)
DESCASC
Temp. mínima en grados centígrados (hora)
DESCASC
Temp. media en grados centígrados
DESCASC
Racha de viento máxima en m/sg (hora)
DESCASC
Velocidad máxima media en intervalos de 10 minutos(hora)
DESCASC
Precipitaciones diarias en mm
DESCASC
Precipitaciones de 00:00 a 06:00 en mm
DESCASC
Precipitaciones de 06:00 a 12:00 en mm
DESCASC
Precipitaciones de 12:00 a 18:00 en mm
DESCASC
Precipitaciones de 18:00 a 24:00 en mm
DESCASC
29-03-2020 19.4 (16:30) 4.6 (05:10) 12 12.22 (21:40) 6.94 (22:10) 0 0 0 0 0
28-03-2020 18.1 (17:20) 3.4 (06:00) 10.8 5.28 (16:30) 2.22 (15:40) 0 0 0 0 0
27-03-2020 14.8 (17:50) 0 (07:00) 7.4 5.83 (13:50) 2.22 (13:00) 0 0 0 0 0
26-03-2020 14.7 (14:30) 2.9 (00:00) 8.8 13.33 (17:10) 8.33 (17:10) 0 0 0 0 0
25-03-2020 9.4 (15:30) 5.8 (00:00) 7.6 8.89 (09:30) 5.28 (10:20) 0 0 0 0 0
24-03-2020 16.9 (15:00) 9.1 (00:00) 13 8.33 (21:30) 4.72 (23:10) 0 0 0 0 0
23-03-2020 15.9 (13:30) 7.6 (00:00) 11.7 9.72 (14:00) 5.56 (16:00) 0.6 0 0 0.6 0
22-03-2020 18.1 (15:00) 4.1 (06:20) 11.1 6.94 (17:00) 4.44 (17:00) 0 0 0 0 0
21-03-2020 16.7 (16:20) 3.8 (00:00) 10.3 6.39 (13:30) 3.61 (13:30) 0 0 0 0 0
20-03-2020 16.3 (16:00) 4.8 (00:00) 10.5 7.78 (15:30) 4.72 (12:50) 0 0 0 0 0
19-03-2020 17.3 (14:10) 7.3 (00:00) 12.3 6.67 (15:10) 3.61 (15:20) 0 0 0 0 0
18-03-2020 16.2 (14:30) 7.1 (00:00) 11.7 3.61 (00:40) 1.67 (00:40) 0 0 0 0 0
17-03-2020 16.2 (16:40) 10.3 (00:00) 13.3 12.5 (00:10) 6.67 (00:10) 0.4 0 0.2 0.2 0
16-03-2020 12.7 (23:30) 9.8 (00:00) 11.3 14.44 (10:00) 8.33 (10:00) 16.2 8.6 5 2.4 0.2
15-03-2020 18.7 (14:50) 2.8 (00:00) 10.8 13.89 (21:30) 8.61 (21:30) 8 0 0 0.4 7.6
14-03-2020 19.5 (18:20) 4.6 (00:00) 12 5.83 (03:20) 3.33 (03:20) 0 0 0 0 0
13-03-2020 17.9 (16:50) 9.1 (23:59) 13.5 5.83 (00:10) 3.06 (20:50) 1 1 0 0 0
12-03-2020 25 (16:00) 7.6 (00:00) 16.3 7.78 (20:50) 4.17 (21:00) 0.8 0 0 0 0.8
11-03-2020 24.6 (16:00) 5.5 (00:00) 15.1 4.44 (17:50) 2.78 (06:50) 0 0 0 0 0
10-03-2020 22.2 (16:00) 4.7 (00:00) 13.5 10.28 (02:10) 6.11 (01:10) 0 0 0 0 0
09-03-2020 15 (15:30) 8.6 (00:00) 11.8 22.22 (14:00) 13.61 (13:30) 0 0 0 0 0
08-03-2020 18.3 (15:00) 3.2 (00:00) 10.7 12.5 (14:10) 7.5 (14:10) 0 0 0 0 0
07-03-2020 16.8 (15:30) 4.6 (00:00) 10.7 18.61 (15:40) 11.39 (16:00) 0 0 0 0 0
06-03-2020 11.1 (12:50) 4.6 (00:00) 7.9 23.61 (15:30) 13.61 (13:50) 0 0 0 0 0
05-03-2020 19.2 (13:40) 7.4 (00:00) 13.3 17.5 (14:00) 10.28 (17:00) 0 0 0 0 0
04-03-2020 19.7 (14:50) 8.6 (00:00) 14.2 14.44 (12:20) 8.61 (15:00) 0 0 0 0 0
03-03-2020 14.2 (18:20) 3.8 (00:00) 9 20 (18:40) 12.5 (18:40) 2.2 0 2 0.2 0
02-03-2020 15 (07:00) 5.4 (00:00) 10.2 21.39 (07:10) 11.39 (07:10) 3.8 1 2.8 0 0
01-03-2020 20 (16:30) 10.2 (00:00) 15.1 15.56 (19:30) 8.89 (15:10) 0.6 0 0 0 0.6
29-02-2020 17.6 (15:40) 5.8 (00:00) 11.7 8.33 (23:00) 5 (23:00) 0 0 0 0 0

Gráficas

Temp. máximas Temp. mínimas Temp. medias Precipitaciones Rachas de viento máximas Velocidades máximas media en intervalos de 10 minutos

Datos horarios

Fecha y hora oficial Temperatura (ºC) Velocidad del viento (km/h) Dirección del viento Racha (km/h) Dirección de racha Precipitación (mm) Presión (hPa) Tendencia (hPa) Humedad (%)
2020-03-29 23:00:00 9.6 22 Oeste 41 Oeste 0 -- -- 69
2020-03-29 22:00:00 10.4 20 Oeste 44 Oeste 0 -- -- 66
2020-03-29 21:00:00 11.7 23 Oeste 43 Oeste 0 -- -- 62
2020-03-29 20:00:00 14 21 Oeste 43 Oeste 0 -- -- 55
2020-03-29 19:00:00 16.8 23 Oeste 40 Oeste 0 -- -- 46
2020-03-29 18:00:00 18.1 21 Oeste 39 Oeste 0 -- -- 40
2020-03-29 17:00:00 19.1 21 Oeste 33 Oeste 0 -- -- 37
2020-03-29 16:00:00 19.1 14 Oeste 31 Oeste 0 -- -- 38
2020-03-29 15:00:00 18 15 Oeste 30 Oeste 0 -- -- 41
2020-03-29 14:00:00 16.6 16 Oeste 35 Oeste 0 -- -- 45
2020-03-29 13:00:00 14.8 17 Oeste 29 Oeste 0 -- -- 46
2020-03-29 12:00:00 13 16 Oeste 26 Oeste 0 -- -- 51
2020-03-29 11:00:00 11 10 Oeste 21 Oeste 0 -- -- 59
2020-03-29 10:00:00 8.1 7 Noroeste 16 Noroeste 0 -- -- 76
2020-03-29 09:00:00 5.8 8 Noroeste 16 Noroeste 0 -- -- 81
2020-03-29 08:00:00 5 6 Noroeste 18 Noroeste 0 -- -- 86
2020-03-29 07:00:00 5 9 Noroeste 17 Noroeste 0 -- -- 85
2020-03-29 06:00:00 5.2 5 Noroeste 13 Noroeste 0 -- -- 87
2020-03-29 05:00:00 4.7 4 Noroeste 11 Norte 0 -- -- 84
2020-03-29 03:00:00 6 4 Noroeste 9 Noroeste 0 -- -- 84
2020-03-29 01:00:00 6.9 4 Noroeste 9 Noroeste 0 -- -- 81
2020-03-29 00:00:00 8.5 2 Noroeste 5 Oeste 0 -- -- 71
2020-03-28 23:00:00 9.3 3 Noroeste 6 Norte 0 -- -- 69
2020-03-28 22:00:00 10.6 7 Oeste 10 Oeste 0 -- -- 61
2020-03-28 21:00:00 11.7 0 Calma 8 Sudoeste 0 -- -- 63
2020-03-28 20:00:00 13.8 5 Sudoeste 10 Sudoeste 0 -- -- 52
2020-03-28 19:00:00 16.3 7 Sudoeste 14 Sudoeste 0 -- -- 45
2020-03-28 18:00:00 17.9 6 Oeste 16 Sudoeste 0 -- -- 39
2020-03-28 17:00:00 17.6 8 Sudoeste 19 Oeste 0 -- -- 41
2020-03-28 16:00:00 17.9 6 Oeste 15 Oeste 0 -- -- 40
2020-03-28 15:00:00 17.5 6 Oeste 14 Oeste 0 -- -- 40
2020-03-28 14:00:00 17 4 Sudoeste 14 Sudoeste 0 -- -- 40
2020-03-28 13:00:00 16.5 6 Sudoeste 15 Sudoeste 0 -- -- 45
2020-03-28 12:00:00 14.6 5 Sudoeste 17 Oeste 0 -- -- 52
2020-03-28 11:00:00 12.6 6 Noroeste 13 Noroeste 0 -- -- 58
2020-03-28 10:00:00 9.4 4 Noroeste 10 Oeste 0 -- -- 73
2020-03-28 09:00:00 5.6 4 Noroeste 9 Noroeste 0 -- -- 86
2020-03-28 08:00:00 4.5 4 Noroeste 8 Noroeste 0 -- -- 90
2020-03-28 07:00:00 3.5 3 Noroeste 8 Noroeste 0 -- -- 89
2020-03-28 06:00:00 3.4 6 Noroeste 12 Noroeste 0 -- -- 88
2020-03-28 05:00:00 4.8 5 Oeste 9 Oeste 0 -- -- 85
2020-03-28 04:00:00 5.3 3 Noroeste 10 Noroeste 0 -- -- 82
2020-03-28 03:00:00 5.6 3 Oeste 8 Norte 0 -- -- 83
2020-03-28 02:00:00 6.3 3 Norte 7 Noroeste 0 -- -- 82
2020-03-28 01:00:00 6.9 4 Norte 5 Norte 0 -- -- 78
2020-03-28 00:00:00 7 2 Norte 10 Este 0 -- -- 79
2020-03-27 23:00:00 8.1 0 Calma 7 Oeste 0 -- -- 74
2020-03-27 22:00:00 8.7 4 Norte 6 Nordeste 0 -- -- 68
2020-03-27 21:00:00 10.3 3 Norte 5 Oeste 0 -- -- 61
2020-03-27 20:00:00 11.6 4 Oeste 10 Oeste 0 -- -- 55
2020-03-27 19:00:00 12.3 6 Oeste 12 Oeste 0 -- -- 53
2020-03-27 18:00:00 14.7 6 Sudoeste 14 Sudoeste 0 -- -- 44
2020-03-27 17:00:00 13.8 6 Sudoeste 15 Sudoeste 0 -- -- 43
2020-03-27 16:00:00 14.1 5 Oeste 14 Oeste 0 -- -- 44
2020-03-27 15:00:00 14.1 7 Oeste 14 Oeste 0 -- -- 42
2020-03-27 14:00:00 13.6 8 Oeste 21 Noroeste 0 -- -- 45
2020-03-27 13:00:00 12 8 Oeste 15 Oeste 0 -- -- 54
2020-03-27 12:00:00 11.1 5 Oeste 13 Oeste 0 -- -- 60
2020-03-27 11:00:00 9.1 6 Oeste 14 Noroeste 0 -- -- 67
2020-03-27 10:00:00 6.3 4 Sudoeste 8 Oeste 0 -- -- 81
2020-03-27 09:00:00 3.8 2 Noroeste 8 Oeste 0 -- -- 94
2020-03-27 08:00:00 1.2 4 Noroeste 6 Oeste 0 -- -- 95
2020-03-27 07:00:00 0 4 Noroeste 8 Oeste 0 -- -- 95
2020-03-27 06:00:00 0.9 2 Oeste 11 Noroeste 0 -- -- 94
2020-03-27 05:00:00 1.1 6 Noroeste 10 Oeste 0 -- -- 94
2020-03-27 04:00:00 1.9 2 Noroeste 4 Norte 0 -- -- 92
2020-03-27 03:00:00 2.3 3 Noroeste 6 Nordeste 0 -- -- 90
2020-03-27 02:00:00 3.2 2 Sur 4 Nordeste 0 -- -- 87
2020-03-27 01:00:00 3.9 3 Nordeste 5 Nordeste 0 -- -- 85
2020-03-27 00:00:00 5 6 Nordeste 9 Nordeste 0 -- -- 82
2020-03-26 23:00:00 5.4 6 Norte 16 Este 0 -- -- 83
2020-03-26 22:00:00 6.1 10 Sudeste 22 Sudeste 0 -- -- 80
2020-03-26 21:00:00 6.4 14 Sudeste 26 Sudeste 0 -- -- 79
2020-03-26 20:00:00 6.5 11 Sudeste 34 Sudeste 0 -- -- 78
2020-03-26 19:00:00 7.8 23 Sudeste 46 Este 0 -- -- 72
2020-03-26 18:00:00 8.9 23 Este 48 Sudeste 0 -- -- 66
2020-03-26 17:00:00 12 22 Este 36 Sudeste 0 -- -- 48
2020-03-26 16:00:00 13.6 16 Sudeste 28 Sudeste 0 -- -- 48
2020-03-26 15:00:00 14 10 Sudeste 25 Noroeste 0 -- -- 47
2020-03-26 14:00:00 14.3 17 Oeste 32 Oeste 0 -- -- 32
2020-03-26 13:00:00 13.5 15 Oeste 33 Oeste 0 -- -- 35
2020-03-26 12:00:00 13 17 Oeste 33 Noroeste 0 -- -- 42
2020-03-26 11:00:00 11.4 23 Noroeste 45 Oeste 0 -- -- 46
2020-03-26 10:00:00 8.4 8 Norte 13 Noroeste 0 -- -- 73
2020-03-26 09:00:00 6 7 Nordeste 15 Oeste 0 -- -- 81
2020-03-26 08:00:00 4.1 9 Noroeste 16 Noroeste 0 -- -- 91
2020-03-26 07:00:00 3.2 3 Oeste 12 Oeste 0 -- -- 90
2020-03-26 06:00:00 3.8 4 Este 17 Oeste 0 -- -- 91
2020-03-26 05:00:00 4.8 2 Sudoeste 9 Noroeste 0 -- -- 91
2020-03-26 04:00:00 5.1 0 Calma 12 Oeste 0 -- -- 91
2020-03-26 03:00:00 5.4 8 Oeste 15 Oeste 0 -- -- 90
2020-03-26 02:00:00 6.4 6 Oeste 10 Oeste 0 -- -- 88
2020-03-26 01:00:00 6.9 2 Norte 9 Norte 0 -- -- 84
2020-03-26 00:00:00 7.1 6 Norte 10 Norte 0 -- -- 82
2020-03-25 23:00:00 7.3 0 Calma 5 Nordeste 0 -- -- 81
2020-03-25 22:00:00 7.2 3 Nordeste 6 Nordeste 0 -- -- 80
2020-03-25 21:00:00 7.4 3 Nordeste 6 Nordeste 0 -- -- 80
2020-03-25 20:00:00 7.7 3 Nordeste 8 Nordeste 0 -- -- 77
2020-03-25 19:00:00 8.3 3 Nordeste 7 Este 0 -- -- 72
2020-03-25 18:00:00 8.7 5 Sudeste 10 Sudeste 0 -- -- 71
2020-03-25 17:00:00 8.6 3 Este 8 Sudeste 0 -- -- 69
2020-03-25 16:00:00 8.8 7 Nordeste 17 Este 0 -- -- 67
2020-03-25 15:00:00 8.3 7 Este 16 Este 0 -- -- 70
2020-03-25 14:00:00 7.9 10 Este 21 Este 0 -- -- 71
2020-03-25 13:00:00 6.9 13 Este 23 Este 0 -- -- 76
2020-03-25 12:00:00 6.5 11 Sudeste 20 Este 0 -- -- 79
2020-03-25 11:00:00 6.2 15 Este 29 Este 0 -- -- 80
2020-03-25 10:00:00 5.9 15 Este 32 Sudeste 0 -- -- 82
2020-03-25 09:00:00 5.9 15 Este 29 Este 0 -- -- 83
2020-03-25 08:00:00 6.3 15 Este 31 Este 0 -- -- 85
2020-03-25 07:00:00 6.6 15 Este 29 Este 0 -- -- 85
2020-03-25 06:00:00 7.1 7 Este 16 Este 0 -- -- 92
2020-03-25 05:00:00 7.2 9 Este 16 Sudeste 0 -- -- 94
2020-03-25 04:00:00 7.2 8 Este 18 Este 0 -- -- 93
2020-03-25 03:00:00 7.3 10 Este 17 Este 0 -- -- 93
2020-03-25 02:00:00 7.6 8 Este 26 Sudeste 0 -- -- 93
2020-03-25 01:00:00 8.4 13 Este 25 Este 0 -- -- 90
2020-03-25 00:00:00 9.1 10 Este 25 Este 0 -- -- 86
2020-03-24 23:00:00 9.6 14 Este 26 Este 0 -- -- 82
2020-03-24 22:00:00 10.3 16 Este 30 Este 0 -- -- 77
2020-03-24 21:00:00 11.4 14 Sudeste 23 Sudeste 0 -- -- 70
2020-03-24 20:00:00 12 9 Sudeste 20 Sur 0 -- -- 70
2020-03-24 19:00:00 13.1 15 Sur 25 Sur 0 -- -- 66
2020-03-24 18:00:00 14.6 10 Sur 20 Sur 0 -- -- 60
2020-03-24 17:00:00 15.7 10 Sur 19 Sur 0 -- -- 55
2020-03-24 16:00:00 16.5 8 Sur 21 Sudeste 0 -- -- 56
2020-03-24 15:00:00 16.9 8 Sur 17 Sur 0 -- -- 56
2020-03-24 14:00:00 15.8 5 Sur 16 Sur 0 -- -- 58
2020-03-24 13:00:00 16.6 8 Sur 21 Este 0 -- -- 56
2020-03-24 12:00:00 15.1 12 Sudeste 25 Sudeste 0 -- -- 62
2020-03-24 11:00:00 13.6 13 Este 22 Este 0 -- -- 65
2020-03-24 10:00:00 12.5 12 Sudeste 21 Este 0 -- -- 72
2020-03-24 09:00:00 10.9 5 Este 13 Este 0 -- -- 82
2020-03-24 08:00:00 9.7 2 Este 14 Nordeste 0 -- -- 87
2020-03-24 07:00:00 9.6 6 Nordeste 12 Este 0 -- -- 86
2020-03-24 06:00:00 9.4 5 Nordeste 15 Este 0 -- -- 89
2020-03-24 05:00:00 9.5 5 Sudeste 13 Nordeste 0 -- -- 89
2020-03-24 04:00:00 9.7 5 Sudeste 9 Sur 0 -- -- 89
2020-03-24 03:00:00 9.8 5 Sudeste 27 Este 0 -- -- 88
2020-03-24 02:00:00 9.9 11 Este 27 Este 0 -- -- 88
2020-03-24 01:00:00 10 13 Este 25 Este 0 -- -- 86
2020-03-24 00:00:00 10.5 11 Este 18 Nordeste 0 -- -- 89
2020-03-23 23:00:00 11.2 8 Este 15 Este 0 -- -- 90
2020-03-23 22:00:00 11.3 5 Nordeste 10 Este 0 -- -- 92
2020-03-23 21:00:00 10.7 2 Sudeste 6 Nordeste 0 -- -- 92
2020-03-23 20:00:00 11.5 3 Este 8 Este 0 -- -- 89
2020-03-23 19:00:00 12.2 6 Este 12 Este 0 -- -- 90
2020-03-23 18:00:00 11.9 4 Sudeste 14 Sudeste 0.4 -- -- 90
2020-03-23 17:00:00 11.9 11 Sudeste 35 Sudeste 0.2 -- -- 86
2020-03-23 16:00:00 15.1 20 Sudeste 31 Este 0 -- -- 69
2020-03-23 15:00:00 13.8 9 Sudeste 29 Sudeste 0 -- -- 82
2020-03-23 14:00:00 15 19 Este 35 Sudeste 0 -- -- 72
2020-03-23 13:00:00 15.3 19 Este 31 Este 0 -- -- 67
2020-03-23 12:00:00 15 16 Este 27 Este 0 -- -- 69
2020-03-23 11:00:00 14.2 15 Este 31 Este 0 -- -- 72
2020-03-23 10:00:00 13.1 11 Este 22 Sudeste 0 -- -- 76
2020-03-23 09:00:00 9.8 3 Oeste 7 Oeste 0 -- -- 92
2020-03-23 08:00:00 8.9 4 Oeste 6 Oeste 0 -- -- 93
2020-03-23 07:00:00 8.3 2 Oeste 6 Norte 0 -- -- 93
2020-03-23 06:00:00 8.3 2 Noroeste 4 Noroeste 0 -- -- 94
2020-03-23 05:00:00 7.6 4 Oeste 8 Noroeste 0 -- -- 94
2020-03-23 04:00:00 8 0 Calma 5 Norte 0 -- -- 94
2020-03-23 03:00:00 7.9 3 Noroeste 4 Oeste 0 -- -- 93
2020-03-23 02:00:00 8.6 0 Calma 6 Nordeste 0 -- -- 90
2020-03-23 01:00:00 9.1 2 Noroeste 4 Noroeste 0 -- -- 90
2020-03-23 00:00:00 9.3 2 Sudoeste 8 Nordeste 0 -- -- 89
2020-03-22 23:00:00 9.3 6 Norte 10 Norte 0 -- -- 86
2020-03-22 22:00:00 10.1 4 Norte 8 Norte 0 -- -- 84
2020-03-22 21:00:00 10.6 5 Norte 8 Norte 0 -- -- 82
2020-03-22 20:00:00 11.7 4 Sur 14 Sudeste 0 -- -- 75
2020-03-22 19:00:00 13.4 8 Sudeste 17 Sur 0 -- -- 71
2020-03-22 18:00:00 15.4 13 Sur 23 Sur 0 -- -- 65
2020-03-22 17:00:00 15.7 16 Sur 25 Sur 0 -- -- 62
2020-03-22 16:00:00 16.4 8 Este 24 Este 0 -- -- 51
2020-03-22 15:00:00 18.1 11 Este 24 Sudeste 0 -- -- 48
2020-03-22 14:00:00 17.2 9 Este 18 Este 0 -- -- 49
2020-03-22 13:00:00 15.9 10 Este 21 Este 0 -- -- 61
2020-03-22 12:00:00 14.3 7 Este 17 Este 0 -- -- 67
2020-03-22 11:00:00 11.7 2 Noroeste 8 Oeste 0 -- -- 79
2020-03-22 10:00:00 8.1 6 Oeste 10 Oeste 0 -- -- 92
2020-03-22 09:00:00 6.1 3 Noroeste 7 Noroeste 0 -- -- 94
2020-03-22 08:00:00 5.3 3 Oeste 7 Oeste 0 -- -- 93
2020-03-22 07:00:00 4.7 3 Noroeste 6 Noroeste 0 -- -- 94
2020-03-22 06:00:00 4.4 3 Noroeste 8 Oeste 0 -- -- 93
2020-03-22 05:00:00 4.7 7 Oeste 9 Norte 0 -- -- 92
2020-03-22 04:00:00 6.3 3 Noroeste 5 Norte 0 -- -- 91
2020-03-22 03:00:00 6.5 3 Norte 5 Norte 0 -- -- 91
2020-03-22 02:00:00 7.3 2 Norte 5 Este 0 -- -- 87
2020-03-22 01:00:00 7.7 0 Calma 6 Este 0 -- -- 86
2020-03-22 00:00:00 8 3 Este 5 Nordeste 0 -- -- 82
2020-03-21 23:00:00 8.8 2 Norte 6 Norte 0 -- -- 77
2020-03-21 22:00:00 9.3 4 Este 19 Sur 0 -- -- 71
2020-03-21 21:00:00 10.8 4 Nordeste 8 Nordeste 0 -- -- 63
2020-03-21 20:00:00 12.4 4 Nordeste 6 Nordeste 0 -- -- 57
2020-03-21 19:00:00 14.5 3 Este 8 Este 0 -- -- 51
2020-03-21 18:00:00 15.8 6 Este 17 Este 0 -- -- 44
2020-03-21 17:00:00 16.4 5 Sudeste 17 Este 0 -- -- 42
2020-03-21 16:00:00 16.3 8 Este 20 Sudeste 0 -- -- 42
2020-03-21 15:00:00 15.8 10 Este 22 Este 0 -- -- 50
2020-03-21 14:00:00 15.4 12 Este 23 Este 0 -- -- 50
2020-03-21 13:00:00 14.9 9 Este 17 Este 0 -- -- 48
2020-03-21 12:00:00 14 6 Este 13 Este 0 -- -- 56
2020-03-21 11:00:00 12.4 6 Sudeste 13 Este 0 -- -- 71
2020-03-21 10:00:00 8.9 0 Calma 4 Norte 0 -- -- 86
2020-03-21 09:00:00 6.4 3 Noroeste 5 Norte 0 -- -- 95
2020-03-21 08:00:00 4.4 3 Norte 5 Oeste 0 -- -- 96
2020-03-21 07:00:00 3.9 4 Oeste 8 Oeste 0 -- -- 95
2020-03-21 06:00:00 4.6 0 Calma 6 Noroeste 0 -- -- 94
2020-03-21 05:00:00 4.8 5 Noroeste 9 Oeste 0 -- -- 93
2020-03-21 04:00:00 6.5 3 Norte 6 Sudeste 0 -- -- 91
2020-03-21 03:00:00 6.7 0 Calma 7 Nordeste 0 -- -- 91
2020-03-21 02:00:00 7.1 0 Calma 8 Este 0 -- -- 91
2020-03-21 01:00:00 7.3 4 Nordeste 9 Nordeste 0 -- -- 89
2020-03-21 00:00:00 7.8 4 Nordeste 11 Nordeste 0 -- -- 87
2020-03-20 23:00:00 8.5 6 Este 10 Nordeste 0 -- -- 84
2020-03-20 22:00:00 9.7 3 Este 12 Este 0 -- -- 78
2020-03-20 21:00:00 10.6 5 Sudeste 10 Sudeste 0 -- -- 75
2020-03-20 20:00:00 12 5 Sudeste 10 Sudeste 0 -- -- 70
2020-03-20 19:00:00 14 6 Sudeste 14 Este 0 -- -- 66
2020-03-20 18:00:00 15.5 10 Este 21 Este 0 -- -- 58
2020-03-20 17:00:00 15.8 11 Este 24 Este 0 -- -- 57
2020-03-20 16:00:00 16.3 13 Sudeste 28 Sudeste 0 -- -- 57
2020-03-20 15:00:00 15.7 11 Este 27 Este 0 -- -- 58
2020-03-20 14:00:00 15.5 13 Este 26 Sudeste 0 -- -- 63
2020-03-20 13:00:00 15 14 Sudeste 27 Sudeste 0 -- -- 64
2020-03-20 12:00:00 13.7 14 Este 24 Este 0 -- -- 71
2020-03-20 11:00:00 12.9 10 Este 18 Sudeste 0 -- -- 75
2020-03-20 10:00:00 9.9 7 Sudeste 13 Sudeste 0 -- -- 91
2020-03-20 09:00:00 6.6 0 Calma 5 Oeste 0 -- -- 97
2020-03-20 08:00:00 5.3 4 Oeste 5 Oeste 0 -- -- 96
2020-03-20 07:00:00 4.9 4 Oeste 7 Norte 0 -- -- 95
2020-03-20 06:00:00 5.8 4 Norte 11 Este 0 -- -- 94
2020-03-20 05:00:00 5.8 4 Nordeste 8 Nordeste 0 -- -- 94
2020-03-20 04:00:00 6.1 4 Este 6 Nordeste 0 -- -- 93
2020-03-20 03:00:00 6.5 4 Nordeste 9 Nordeste 0 -- -- 91
2020-03-20 02:00:00 6.9 4 Nordeste 7 Nordeste 0 -- -- 89
2020-03-20 01:00:00 7.6 5 Nordeste 7 Nordeste 0 -- -- 85
2020-03-20 00:00:00 8.4 4 Nordeste 17 Este 0 -- -- 82
2020-03-19 23:00:00 9 7 Este 13 Este 0 -- -- 80
2020-03-19 22:00:00 9.9 4 Nordeste 8 Este 0 -- -- 79
2020-03-19 21:00:00 11.3 4 Este 10 Este 0 -- -- 77
2020-03-19 20:00:00 12.6 7 Sudeste 11 Sudeste 0 -- -- 77
2020-03-19 19:00:00 14.1 5 Este 14 Este 0 -- -- 74
2020-03-19 18:00:00 15.6 10 Sudeste 21 Sudeste 0 -- -- 67
2020-03-19 17:00:00 16.8 9 Sudeste 17 Sudeste 0 -- -- 64
2020-03-19 16:00:00 17.1 11 Sudeste 24 Este 0 -- -- 62
2020-03-19 15:00:00 17.1 12 Este 21 Sudeste 0 -- -- 54
2020-03-19 14:00:00 16.9 6 Este 14 Este 0 -- -- 67
2020-03-19 13:00:00 16.2 6 Este 12 Este 0 -- -- 70
2020-03-19 12:00:00 14 5 Este 9 Este 0 -- -- 77
2020-03-19 11:00:00 11 2 Norte 6 Este 0 -- -- 98
2020-03-19 10:00:00 9 0 Calma 5 Nordeste 0 -- -- 99
2020-03-19 09:00:00 8.6 2 Sur 4 Sudoeste 0 -- -- 98
2020-03-19 08:00:00 8.2 0 Calma 4 Nordeste 0 -- -- 98
2020-03-19 07:00:00 8 2 Norte 3 Norte 0 -- -- 98
2020-03-19 06:00:00 7.8 0 Calma 6 Noroeste 0 -- -- 98
2020-03-19 05:00:00 7.3 2 Noroeste 3 Norte 0 -- -- 97
2020-03-19 04:00:00 7.9 2 Oeste 3 Oeste 0 -- -- 96
2020-03-19 03:00:00 8.7 2 Noroeste 5 Norte 0 -- -- 96
2020-03-19 02:00:00 9.2 3 Noroeste 6 Norte 0 -- -- 95
2020-03-19 01:00:00 10 0 Calma 4 Noroeste 0 -- -- 94
2020-03-19 00:00:00 10.7 4 Norte 6 Noroeste 0 -- -- 94
2020-03-18 23:00:00 10.7 3 Noroeste 4 Noroeste 0 -- -- 93
2020-03-18 22:00:00 11.3 0 Calma 2 Noroeste 0 -- -- 92
2020-03-18 21:00:00 12 0 Calma 3 Sudoeste 0 -- -- 89
2020-03-18 20:00:00 13.1 0 Calma -- -- 0 -- -- 86
2020-03-18 19:00:00 14.4 0 Calma 4 Este 0 -- -- 81
2020-03-18 18:00:00 15.1 3 Este 6 Sudeste 0 -- -- 77
2020-03-18 17:00:00 15.6 4 Sudeste 9 Este 0 -- -- 73
2020-03-18 16:00:00 15.7 4 Este 9 Sudeste 0 -- -- 71
2020-03-18 15:00:00 16 6 Sudeste 10 Sur 0 -- -- 70
2020-03-18 14:00:00 16.1 3 Este 9 Sur 0 -- -- 72
2020-03-18 13:00:00 15 3 Este 6 Sudeste 0 -- -- 77
2020-03-18 12:00:00 13.3 2 Noroeste 6 Norte 0 -- -- 86
2020-03-18 11:00:00 11.1 2 Norte 4 Norte 0 -- -- 93
2020-03-18 10:00:00 9.7 2 Oeste 5 Noroeste 0 -- -- 96
2020-03-18 09:00:00 8.2 4 Norte 6 Noroeste 0 -- -- 97
2020-03-18 08:00:00 7.2 3 Oeste 8 Norte 0 -- -- 96
2020-03-18 07:00:00 7.5 0 Calma 7 Noroeste 0 -- -- 95
2020-03-18 06:00:00 8.2 5 Norte 10 Norte 0 -- -- 95
2020-03-18 05:00:00 8.4 4 Noroeste 6 Norte 0 -- -- 96
2020-03-18 04:00:00 8.6 4 Noroeste 6 Noroeste 0 -- -- 95
2020-03-18 03:00:00 9 4 Noroeste 7 Noroeste 0 -- -- 94
2020-03-18 02:00:00 9.2 3 Noroeste 9 Norte 0 -- -- 93
2020-03-18 01:00:00 10 5 Norte 13 Norte 0 -- -- 93
2020-03-18 00:00:00 10.3 4 Oeste 12 Noroeste 0 -- -- 91
2020-03-17 23:00:00 10.5 3 Noroeste 8 Noroeste 0 -- -- 92
2020-03-17 22:00:00 11 4 Oeste 5 Oeste 0 -- -- 90
2020-03-17 21:00:00 12.2 3 Norte 5 Norte 0 -- -- 85
2020-03-17 20:00:00 13.2 4 Nordeste 6 Este 0 -- -- 81
2020-03-17 19:00:00 14.8 5 Este 18 Sudeste 0 -- -- 76
2020-03-17 18:00:00 15.8 10 Sudeste 24 Este 0 -- -- 69
2020-03-17 17:00:00 16.2 16 Este 27 Este 0 -- -- 68
2020-03-17 16:00:00 16.1 15 Este 30 Este 0 -- -- 68
2020-03-17 15:00:00 15.8 17 Este 32 Este 0 -- -- 70
2020-03-17 14:00:00 15.2 15 Este 30 Este 0 -- -- 72
2020-03-17 13:00:00 14.5 11 Este 19 Este 0.2 -- -- 79
2020-03-17 12:00:00 13.4 8 Este 15 Este 0 -- -- 82
2020-03-17 11:00:00 12.6 3 Este 12 Este 0 -- -- 83
2020-03-17 10:00:00 11.9 5 Este 21 Este 0.2 -- -- 83
2020-03-17 09:00:00 12 7 Este 23 Este 0 -- -- 76
2020-03-17 08:00:00 11.8 5 Este 16 Este 0 -- -- 76
2020-03-17 07:00:00 11.4 0 Calma 16 Este 0 -- -- 80
2020-03-17 06:00:00 11.7 6 Este 24 Este 0 -- -- 77
2020-03-17 05:00:00 12.4 7 Este 23 Este 0 -- -- 74
2020-03-17 04:00:00 12.3 12 Este 32 Este 0 -- -- 78
2020-03-17 03:00:00 12.4 17 Este 33 Este 0 -- -- 78
2020-03-17 02:00:00 12.3 14 Este 33 Nordeste 0 -- -- 79
2020-03-17 01:00:00 12.6 21 Este 45 Este 0 -- -- 78
2020-03-17 00:00:00 12.7 23 Este 40 Este 0 -- -- 78
2020-03-16 23:00:00 12.4 17 Este 28 Este 0 -- -- 80
2020-03-16 22:00:00 12.1 16 Este 30 Este 0 -- -- 82
2020-03-16 21:00:00 12.4 10 Este 32 Este 0 -- -- 79
2020-03-16 20:00:00 12.2 16 Nordeste 30 Este 0.2 -- -- 83
2020-03-16 19:00:00 12.3 17 Este 29 Este 0 -- -- 84
2020-03-16 18:00:00 11.8 16 Nordeste 39 Este 0.6 -- -- 88
2020-03-16 17:00:00 11.1 15 Nordeste 34 Nordeste 1.8 -- -- 90
2020-03-16 16:00:00 12.2 15 Nordeste 31 Nordeste 0 -- -- 77
2020-03-16 15:00:00 12.1 15 Nordeste 31 Este 0 -- -- 79
2020-03-16 14:00:00 11.6 14 Nordeste 33 Este 0 -- -- 81
2020-03-16 13:00:00 11.5 21 Este 42 Nordeste 0 -- -- 81
2020-03-16 12:00:00 10.8 22 Este 49 Este 0 -- -- 84
2020-03-16 11:00:00 10.8 26 Este 44 Nordeste 0 -- -- 88
2020-03-16 10:00:00 10 30 Este 52 Este 0.2 -- -- 93
2020-03-16 09:00:00 10.4 26 Este 45 Este 0.8 -- -- 95
2020-03-16 08:00:00 10.3 27 Este 44 Este 1.8 -- -- 96
2020-03-16 07:00:00 10.2 22 Este 37 Este 2.2 -- -- 96
2020-03-16 06:00:00 10 15 Este 30 Este 2.8 -- -- 97
2020-03-16 05:00:00 10.6 16 Este 29 Sudeste 2.8 -- -- 97
2020-03-16 04:00:00 10.8 15 Este 24 Este 2.4 -- -- 96
2020-03-16 03:00:00 10.9 14 Sudeste 27 Este 0.6 -- -- 95
2020-03-16 02:00:00 11.2 17 Sudeste 36 Este 0 -- -- 94
2020-03-16 01:00:00 11.4 18 Este 42 Este 0 -- -- 92
2020-03-16 00:00:00 11.4 22 Este 39 Este 0 -- -- 90
2020-03-15 23:00:00 11.3 18 Este 37 Este 2.2 -- -- 89
2020-03-15 22:00:00 11.6 22 Este 50 Este 0 -- -- 86
2020-03-15 21:00:00 11.6 28 Este 46 Este 1.4 -- -- 85
2020-03-15 20:00:00 12.1 15 Este 25 Sudeste 3.8 -- -- 87
2020-03-15 19:00:00 13 15 Sudeste 37 Este 0.2 -- -- 84
2020-03-15 18:00:00 14.1 17 Este 32 Sudeste 0 -- -- 82
2020-03-15 17:00:00 15.9 6 Este 29 Sudeste 0.4 -- -- 73
2020-03-15 16:00:00 16.9 19 Este 37 Sudeste 0 -- -- 62
2020-03-15 15:00:00 18.7 23 Este 38 Este 0 -- -- 56
2020-03-15 14:00:00 17.9 17 Este 32 Este 0 -- -- 62
2020-03-15 13:00:00 16.3 14 Este 29 Este 0 -- -- 66
2020-03-15 12:00:00 14.6 15 Este 24 Este 0 -- -- 72
2020-03-15 11:00:00 12.4 6 Sudeste 11 Sudeste 0 -- -- 84
2020-03-15 10:00:00 9.3 2 Sudeste 6 Este 0 -- -- 98
2020-03-15 09:00:00 5.9 0 Calma 6 Nordeste 0 -- -- 96
2020-03-15 08:00:00 2.9 0 Calma 7 Oeste 0 -- -- 94
2020-03-15 07:00:00 3.1 5 Oeste 6 Sudoeste 0 -- -- 93
2020-03-15 06:00:00 3.5 3 Norte 4 Norte 0 -- -- 93
2020-03-15 05:00:00 4 3 Oeste 4 Oeste 0 -- -- 91
2020-03-15 04:00:00 4.6 2 Norte 5 Oeste 0 -- -- 89
2020-03-15 03:00:00 5.1 3 Noroeste 6 Norte 0 -- -- 88
2020-03-15 02:00:00 5.5 3 Noroeste 8 Oeste 0 -- -- 88
2020-03-15 01:00:00 7.3 4 Noroeste 8 Noroeste 0 -- -- 86
2020-03-15 00:00:00 8.5 3 Norte 7 Norte 0 -- -- 84
2020-03-14 23:00:00 9.8 2 Sudoeste 4 Sudoeste 0 -- -- 84
2020-03-14 22:00:00 10.9 3 Sudoeste 8 Este 0 -- -- 78
2020-03-14 21:00:00 11.6 5 Nordeste 9 Este 0 -- -- 75
2020-03-14 20:00:00 13.9 5 Nordeste 8 Sudeste 0 -- -- 63
2020-03-14 19:00:00 17.4 3 Este 5 Este 0 -- -- 43
2020-03-14 18:00:00 19.4 2 Noroeste 10 Noroeste 0 -- -- 36
2020-03-14 17:00:00 19 5 Noroeste 16 Noroeste 0 -- -- 37
2020-03-14 16:00:00 18.5 5 Noroeste 19 Noroeste 0 -- -- 39
2020-03-14 15:00:00 17.8 6 Oeste 15 Oeste 0 -- -- 41
2020-03-14 14:00:00 16.5 3 Norte 17 Oeste 0 -- -- 49
2020-03-14 13:00:00 15.2 6 Noroeste 19 Sudoeste 0 -- -- 53
2020-03-14 12:00:00 13.2 5 Oeste 18 Noroeste 0 -- -- 61
2020-03-14 11:00:00 11.1 5 Oeste 18 Oeste 0 -- -- 70
2020-03-14 10:00:00 8.8 11 Oeste 19 Noroeste 0 -- -- 77
2020-03-14 09:00:00 6.5 10 Noroeste 18 Noroeste 0 -- -- 86
2020-03-14 08:00:00 5.1 6 Noroeste 14 Oeste 0 -- -- 91
2020-03-14 07:00:00 5 6 Noroeste 12 Noroeste 0 -- -- 90
2020-03-14 06:00:00 5.4 2 Noroeste 10 Noroeste 0 -- -- 89
2020-03-14 05:00:00 6.4 6 Noroeste 12 Noroeste 0 -- -- 89
2020-03-14 04:00:00 6.8 5 Oeste 21 Noroeste 0 -- -- 87
2020-03-14 03:00:00 7.6 8 Noroeste 15 Noroeste 0 -- -- 86
2020-03-14 02:00:00 8.3 4 Oeste 14 Oeste 0 -- -- 85
2020-03-14 01:00:00 8.7 4 Oeste 14 Oeste 0 -- -- 86
2020-03-14 00:00:00 9.1 6 Oeste 14 Oeste 0 -- -- 85
2020-03-13 23:00:00 9.9 5 Oeste 12 Oeste 0 -- -- 83
2020-03-13 22:00:00 10.3 6 Oeste 16 Oeste 0 -- -- 83
2020-03-13 21:00:00 11.8 10 Oeste 17 Oeste 0 -- -- 79
2020-03-13 20:00:00 13.9 3 Norte 5 Norte 0 -- -- 77
2020-03-13 19:00:00 15.1 4 Norte 10 Noroeste 0 -- -- 72
2020-03-13 18:00:00 16.7 5 Noroeste 15 Noroeste 0 -- -- 65
2020-03-13 17:00:00 17.5 5 Oeste 10 Oeste 0 -- -- 61
2020-03-13 16:00:00 16.4 3 Nordeste 12 Este 0 -- -- 65
2020-03-13 15:00:00 16.7 4 Sur 11 Sudeste 0 -- -- 65
2020-03-13 14:00:00 16.7 6 Sudeste 14 Este 0 -- -- 66
2020-03-13 13:00:00 15.1 2 Sudeste 7 Oeste 0 -- -- 67
2020-03-13 12:00:00 14.1 3 Noroeste 13 Oeste 0 -- -- 70
2020-03-13 11:00:00 13.1 7 Oeste 16 Oeste 0 -- -- 73
2020-03-13 10:00:00 11.6 10 Noroeste 16 Oeste 0 -- -- 77
2020-03-13 09:00:00 10.3 9 Noroeste 17 Noroeste 0 -- -- 86
2020-03-13 08:00:00 9.7 5 Oeste 9 Noroeste 0 -- -- 90
2020-03-13 07:00:00 9.6 4 Noroeste 10 Noroeste 0 -- -- 91
2020-03-13 06:00:00 9.8 3 Noroeste 8 Oeste 0 -- -- 90
2020-03-13 05:00:00 10.3 3 Noroeste 10 Norte 0 -- -- 89
2020-03-13 04:00:00 10.9 6 Noroeste 17 Norte 0 -- -- 87
2020-03-13 03:00:00 11.3 7 Noroeste 20 Noroeste 0 -- -- 87
2020-03-13 02:00:00 11.9 7 Noroeste 15 Noroeste 0 -- -- 87
2020-03-13 01:00:00 12.3 6 Noroeste 21 Norte 1 -- -- 87
2020-03-13 00:00:00 13.3 9 Noroeste 26 Oeste 0.8 -- -- 83
2020-03-12 23:00:00 14.4 8 Noroeste 22 Oeste 0 -- -- 80
2020-03-12 22:00:00 16 4 Nordeste 26 Noroeste 0 -- -- 75
2020-03-12 21:00:00 16.8 15 Noroeste 28 Noroeste 0 -- -- 70
2020-03-12 20:00:00 19.1 8 Oeste 16 Oeste 0 -- -- 67
2020-03-12 19:00:00 21.5 0 Calma 6 Sudeste 0 -- -- 53
2020-03-12 18:00:00 23.4 6 Sudeste 10 Sudeste 0 -- -- 48
2020-03-12 17:00:00 24.5 5 Este 10 Nordeste 0 -- -- 46
2020-03-12 16:00:00 25 6 Nordeste 12 Nordeste 0 -- -- 39
2020-03-12 15:00:00 24.1 4 Este 11 Nordeste 0 -- -- 42
2020-03-12 14:00:00 23.5 4 Este 11 Sudeste 0 -- -- 45
2020-03-12 13:00:00 21.8 6 Sudeste 11 Este 0 -- -- 50
2020-03-12 12:00:00 19.5 3 Sudeste 11 Sur 0 -- -- 59
2020-03-12 11:00:00 16.3 3 Sur 8 Sudeste 0 -- -- 69
2020-03-12 10:00:00 13 3 Sudoeste 6 Oeste 0 -- -- 78
2020-03-12 09:00:00 10.7 4 Nordeste 9 Norte 0 -- -- 85
2020-03-12 08:00:00 7.6 2 Norte 5 Norte 0 -- -- 89
2020-03-12 07:00:00 8.2 0 Calma 11 Norte 0 -- -- 89
2020-03-12 06:00:00 8.1 5 Norte 8 Norte 0 -- -- 91
2020-03-12 05:00:00 8.2 2 Oeste 5 Noroeste 0 -- -- 91
2020-03-12 04:00:00 8.9 0 Calma 9 Norte 0 -- -- 89
2020-03-12 03:00:00 9.8 5 Norte 9 Norte 0 -- -- 88
2020-03-12 02:00:00 10 4 Noroeste 9 Norte 0 -- -- 87
2020-03-12 01:00:00 12 4 Norte 17 Norte 0 -- -- 81
2020-03-12 00:00:00 12.3 6 Norte 11 Norte 0 -- -- 80
2020-03-11 23:00:00 13.3 4 Noroeste 6 Norte 0 -- -- 76
2020-03-11 22:00:00 14.2 4 Norte 8 Oeste 0 -- -- 73
2020-03-11 21:00:00 15.9 0 Calma 13 Sudeste 0 -- -- 66
2020-03-11 20:00:00 17.5 5 Sudeste 11 Este 0 -- -- 61
2020-03-11 19:00:00 19.9 5 Este 14 Este 0 -- -- 53
2020-03-11 18:00:00 22.8 8 Este 16 Este 0 -- -- 47
2020-03-11 17:00:00 24.1 5 Este 12 Nordeste 0 -- -- 40
2020-03-11 16:00:00 24.6 7 Sudeste 13 Sudeste 0 -- -- 41
2020-03-11 15:00:00 23.8 3 Sudoeste 14 Sudeste 0 -- -- 42
2020-03-11 14:00:00 23 3 Este 12 Sudoeste 0 -- -- 44
2020-03-11 13:00:00 20.3 4 Noroeste 10 Oeste 0 -- -- 48
2020-03-11 12:00:00 17.9 7 Noroeste 15 Oeste 0 -- -- 54
2020-03-11 11:00:00 15.6 4 Oeste 12 Oeste 0 -- -- 61
2020-03-11 10:00:00 12.2 4 Sur 10 Sudeste 0 -- -- 65
2020-03-11 09:00:00 9.9 4 Sudeste 9 Sudeste 0 -- -- 68
2020-03-11 08:00:00 7.3 4 Norte 14 Norte 0 -- -- 73
2020-03-11 07:00:00 7 8 Noroeste 15 Norte 0 -- -- 73
2020-03-11 06:00:00 6.4 4 Noroeste 8 Nordeste 0 -- -- 69
2020-03-11 05:00:00 7.4 2 Sudoeste 7 Noroeste 0 -- -- 61
2020-03-11 04:00:00 9.1 3 Nordeste 9 Norte 0 -- -- 54
2020-03-11 03:00:00 10.7 5 Noroeste 10 Noroeste 0 -- -- 46
2020-03-11 02:00:00 10.2 4 Este 10 Norte 0 -- -- 49
2020-03-11 01:00:00 10.2 5 Norte 10 Norte 0 -- -- 50
2020-03-11 00:00:00 11.3 6 Noroeste 16 Noroeste 0 -- -- 50
2020-03-10 23:00:00 12.3 10 Noroeste 17 Oeste 0 -- -- 54
2020-03-10 22:00:00 13.7 8 Noroeste 19 Oeste 0 -- -- 55
2020-03-10 21:00:00 16.1 13 Oeste 23 Oeste 0 -- -- 46
2020-03-10 20:00:00 16.3 12 Oeste 21 Oeste 0 -- -- 47
2020-03-10 19:00:00 16.5 3 Sur 11 Sudeste 0 -- -- 56
2020-03-10 18:00:00 18.3 8 Sudeste 14 Sudeste 0 -- -- 53
2020-03-10 17:00:00 19.1 8 Sudeste 17 Este 0 -- -- 51
2020-03-10 16:00:00 22.2 9 Oeste 20 Oeste 0 -- -- 33
2020-03-10 15:00:00 18.7 3 Este 11 Sudeste 0 -- -- 47
2020-03-10 14:00:00 16.6 4 Este 12 Este 0 -- -- 53
2020-03-10 13:00:00 14.6 3 Noroeste 9 Nordeste 0 -- -- 57
2020-03-10 12:00:00 11.8 2 Oeste 8 Oeste 0 -- -- 64
2020-03-10 11:00:00 10.3 3 Noroeste 9 Noroeste 0 -- -- 70
2020-03-10 10:00:00 8.6 0 Calma 5 Sudeste 0 -- -- 77
2020-03-10 09:00:00 5.9 0 Calma 14 Norte 0 -- -- 84
2020-03-10 08:00:00 4.9 8 Norte 15 Norte 0 -- -- 84
2020-03-10 07:00:00 6.4 4 Noroeste 10 Noroeste 0 -- -- 82
2020-03-10 06:00:00 5.8 3 Nordeste 6 Oeste 0 -- -- 81
2020-03-10 05:00:00 7 6 Oeste 10 Oeste 0 -- -- 77
2020-03-10 04:00:00 7.7 5 Noroeste 21 Oeste 0 -- -- 74
2020-03-10 03:00:00 8.2 8 Oeste 37 Oeste 0 -- -- 72
2020-03-10 02:00:00 8.4 19 Oeste 37 Oeste 0 -- -- 73
2020-03-10 01:00:00 8.7 22 Oeste 37 Oeste 0 -- -- 70
2020-03-10 00:00:00 8.7 20 Oeste 42 Oeste 0 -- -- 67
2020-03-09 23:00:00 9 24 Oeste 43 Oeste 0 -- -- 63
2020-03-09 22:00:00 9.2 28 Oeste 60 Oeste 0 -- -- 61
2020-03-09 21:00:00 9.6 30 Oeste 54 Oeste 0 -- -- 57
2020-03-09 20:00:00 10.2 28 Oeste 51 Oeste 0 -- -- 63
2020-03-09 19:00:00 11.5 21 Oeste 49 Oeste 0 -- -- 57
2020-03-09 18:00:00 13.3 33 Oeste 66 Oeste 0 -- -- 48
2020-03-09 17:00:00 14.6 37 Oeste 64 Oeste 0 -- -- 41
2020-03-09 16:00:00 14.7 38 Oeste 71 Noroeste 0 -- -- 47
2020-03-09 15:00:00 14.5 48 Oeste 73 Oeste 0 -- -- 43
2020-03-09 14:00:00 14.2 45 Oeste 80 Noroeste 0 -- -- 47
2020-03-09 13:00:00 13.7 44 Oeste 72 Oeste 0 -- -- 53
2020-03-09 12:00:00 13.2 35 Oeste 63 Oeste 0 -- -- 55
2020-03-09 11:00:00 11.6 34 Oeste 62 Oeste 0 -- -- 61
2020-03-09 10:00:00 10.5 30 Oeste 61 Oeste 0 -- -- 63
2020-03-09 09:00:00 9.8 30 Oeste 52 Oeste 0 -- -- 64
2020-03-09 08:00:00 8.8 24 Oeste 43 Oeste 0 -- -- 66
2020-03-09 07:00:00 8.9 27 Oeste 53 Oeste 0 -- -- 67
2020-03-09 06:00:00 9.4 27 Oeste 48 Oeste 0 -- -- 66
2020-03-09 05:00:00 9.6 18 Oeste 38 Oeste 0 -- -- 68
2020-03-09 04:00:00 10.1 22 Oeste 47 Oeste 0 -- -- 68
2020-03-09 03:00:00 10.6 24 Oeste 41 Oeste 0 -- -- 67
2020-03-09 02:00:00 11.1 21 Oeste 37 Oeste 0 -- -- 68
2020-03-09 01:00:00 10.9 19 Oeste 32 Oeste 0 -- -- 73
2020-03-09 00:00:00 9.1 11 Oeste 19 Oeste 0 -- -- 79
2020-03-08 23:00:00 9 7 Oeste 18 Oeste 0 -- -- 77
2020-03-08 22:00:00 9.7 8 Oeste 19 Oeste 0 -- -- 74
2020-03-08 21:00:00 11.7 14 Oeste 27 Oeste 0 -- -- 64
2020-03-08 20:00:00 13.3 11 Oeste 26 Oeste 0 -- -- 53
2020-03-08 19:00:00 15.1 15 Oeste 27 Oeste 0 -- -- 46
2020-03-08 18:00:00 16.5 14 Oeste 30 Oeste 0 -- -- 46
2020-03-08 17:00:00 16.9 14 Oeste 33 Sudoeste 0 -- -- 48
2020-03-08 16:00:00 17.8 19 Oeste 36 Oeste 0 -- -- 42
2020-03-08 15:00:00 18.3 18 Oeste 45 Oeste 0 -- -- 43
2020-03-08 14:00:00 16.3 24 Oeste 39 Oeste 0 -- -- 47
2020-03-08 13:00:00 16.1 18 Oeste 33 Oeste 0 -- -- 50
2020-03-08 12:00:00 14.2 13 Oeste 25 Oeste 0 -- -- 58
2020-03-08 11:00:00 11 8 Oeste 16 Noroeste 0 -- -- 70
2020-03-08 10:00:00 8.1 4 Noroeste 8 Norte 0 -- -- 80
2020-03-08 09:00:00 5.9 0 Calma 9 Norte 0 -- -- 87
2020-03-08 08:00:00 3.9 6 Norte 11 Noroeste 0 -- -- 93
2020-03-08 07:00:00 3.7 3 Noroeste 8 Norte 0 -- -- 91
2020-03-08 06:00:00 4.1 4 Noroeste 12 Noroeste 0 -- -- 91
2020-03-08 05:00:00 4.9 5 Noroeste 15 Noroeste 0 -- -- 90
2020-03-08 04:00:00 5 6 Noroeste 13 Norte 0 -- -- 89
2020-03-08 03:00:00 6.2 4 Noroeste 10 Oeste 0 -- -- 82
2020-03-08 02:00:00 7.5 6 Oeste 13 Oeste 0 -- -- 78
2020-03-08 01:00:00 9 4 Oeste 24 Oeste 0 -- -- 73
2020-03-08 00:00:00 9.7 17 Oeste 31 Oeste 0 -- -- 72
2020-03-07 23:00:00 9.8 14 Oeste 35 Oeste 0 -- -- 72
2020-03-07 22:00:00 10.1 23 Oeste 46 Oeste 0 -- -- 73
2020-03-07 21:00:00 10.7 22 Oeste 42 Oeste 0 -- -- 67
2020-03-07 20:00:00 11.5 23 Oeste 48 Noroeste 0 -- -- 65
2020-03-07 19:00:00 13 29 Oeste 52 Oeste 0 -- -- 57
2020-03-07 18:00:00 14.4 30 Noroeste 61 Oeste 0 -- -- 52
2020-03-07 17:00:00 15.8 37 Oeste 62 Oeste 0 -- -- 47
2020-03-07 16:00:00 16.3 41 Oeste 67 Oeste 0 -- -- 44
2020-03-07 15:00:00 16.5 35 Oeste 56 Oeste 0 -- -- 43
2020-03-07 14:00:00 15.9 34 Oeste 62 Oeste 0 -- -- 46
2020-03-07 13:00:00 15 31 Oeste 60 Oeste 0 -- -- 51
2020-03-07 12:00:00 13.7 32 Oeste 58 Oeste 0 -- -- 52
2020-03-07 11:00:00 11.6 30 Oeste 52 Oeste 0 -- -- 59
2020-03-07 10:00:00 9.5 26 Oeste 46 Oeste 0 -- -- 66
2020-03-07 09:00:00 7.3 24 Oeste 42 Oeste 0 -- -- 74
2020-03-07 08:00:00 5.8 23 Oeste 39 Oeste 0 -- -- 79
2020-03-07 07:00:00 4.9 20 Oeste 39 Oeste 0 -- -- 81
2020-03-07 06:00:00 4.8 23 Oeste 42 Oeste 0 -- -- 82
2020-03-07 05:00:00 5 24 Oeste 45 Oeste 0 -- -- 81
2020-03-07 04:00:00 5 29 Oeste 46 Oeste 0 -- -- 80
2020-03-07 03:00:00 4.9 23 Oeste 48 Oeste 0 -- -- 79
2020-03-07 02:00:00 4.8 24 Oeste 42 Oeste 0 -- -- 80
2020-03-07 01:00:00 4.8 16 Oeste 42 Oeste 0 -- -- 82
2020-03-07 00:00:00 4.8 24 Oeste 46 Oeste 0 -- -- 83
2020-03-06 23:00:00 4.8 29 Oeste 50 Oeste 0 -- -- 80
2020-03-06 22:00:00 5 27 Oeste 49 Oeste 0 -- -- 82
2020-03-06 21:00:00 5.1 28 Oeste 53 Noroeste 0 -- -- 80
2020-03-06 20:00:00 5.5 27 Oeste 50 Oeste 0 -- -- 77
2020-03-06 19:00:00 5.9 30 Oeste 60 Oeste 0 -- -- 74
2020-03-06 18:00:00 7.4 37 Oeste 65 Oeste 0 -- -- 64
2020-03-06 17:00:00 7.8 39 Oeste 67 Oeste 0 -- -- 70
2020-03-06 16:00:00 8 42 Oeste 85 Oeste 0 -- -- 66
2020-03-06 15:00:00 10.6 43 Noroeste 77 Noroeste 0 -- -- 49
2020-03-06 14:00:00 10 48 Oeste 80 Oeste 0 -- -- 54
2020-03-06 13:00:00 10.5 44 Oeste 71 Oeste 0 -- -- 58
2020-03-06 12:00:00 10.1 41 Oeste 75 Oeste 0 -- -- 56
2020-03-06 11:00:00 10 31 Oeste 58 Oeste 0 -- -- 62
2020-03-06 10:00:00 9.2 30 Oeste 54 Oeste 0 -- -- 64
2020-03-06 09:00:00 8.1 15 Oeste 28 Oeste 0 -- -- 73
2020-03-06 08:00:00 7.4 14 Oeste 30 Oeste 0 -- -- 74
2020-03-06 07:00:00 6.3 13 Oeste 21 Oeste 0 -- -- 77
2020-03-06 06:00:00 5.4 12 Oeste 23 Oeste 0 -- -- 79
2020-03-06 05:00:00 5.5 8 Oeste 19 Oeste 0 -- -- 78
2020-03-06 04:00:00 6.2 10 Oeste 31 Oeste 0 -- -- 76
2020-03-06 03:00:00 6.4 14 Oeste 28 Oeste 0 -- -- 75
2020-03-06 02:00:00 6.4 15 Oeste 32 Oeste 0 -- -- 76
2020-03-06 01:00:00 7 18 Oeste 34 Oeste 0 -- -- 71
2020-03-06 00:00:00 7.4 19 Oeste 40 Oeste 0 -- -- 67
2020-03-05 23:00:00 8.1 17 Oeste 44 Oeste 0 -- -- 63
2020-03-05 22:00:00 9 29 Oeste 57 Oeste 0 -- -- 61
2020-03-05 21:00:00 9.9 28 Oeste 46 Oeste 0 -- -- 62
2020-03-05 20:00:00 11 27 Oeste 60 Noroeste 0 -- -- 60
2020-03-05 19:00:00 11.8 23 Oeste 48 Oeste 0 -- -- 64
2020-03-05 18:00:00 13.5 31 Noroeste 50 Oeste 0 -- -- 59
2020-03-05 17:00:00 15.2 37 Noroeste 62 Oeste 0 -- -- 53
2020-03-05 16:00:00 14.8 16 Noroeste 61 Oeste 0 -- -- 58
2020-03-05 15:00:00 16 35 Oeste 59 Oeste 0 -- -- 61
2020-03-05 14:00:00 18.3 34 Oeste 63 Oeste 0 -- -- 50
2020-03-05 13:00:00 18 17 Sudoeste 34 Oeste 0 -- -- 58
2020-03-05 12:00:00 15.1 3 Oeste 9 Sudoeste 0 -- -- 70
2020-03-05 11:00:00 12.4 4 Norte 9 Norte 0 -- -- 84
2020-03-05 10:00:00 10.2 2 Sudeste 4 Sudeste 0 -- -- 91
2020-03-05 09:00:00 9.3 3 Sudeste 6 Noroeste 0 -- -- 92
2020-03-05 08:00:00 7.9 3 Noroeste 9 Norte 0 -- -- 93
2020-03-05 07:00:00 7.7 0 Calma 4 Norte 0 -- -- 93
2020-03-05 06:00:00 7.9 5 Oeste 7 Oeste 0 -- -- 92
2020-03-05 05:00:00 8.6 0 Calma 6 Norte 0 -- -- 90
2020-03-05 04:00:00 9.3 3 Norte 6 Norte 0 -- -- 89
2020-03-05 03:00:00 10 0 Calma 8 Norte 0 -- -- 87
2020-03-05 02:00:00 11.1 3 Norte 6 Nordeste 0 -- -- 83
2020-03-05 01:00:00 11 4 Este 8 Norte 0 -- -- 84
2020-03-05 00:00:00 12.4 7 Norte 19 Oeste 0 -- -- 79
2020-03-04 23:00:00 11.4 7 Nordeste 11 Noroeste 0 -- -- 82
2020-03-04 22:00:00 13.1 0 Calma 20 Oeste 0 -- -- 77
2020-03-04 21:00:00 13 11 Oeste 18 Oeste 0 -- -- 80
2020-03-04 20:00:00 14.4 9 Oeste 23 Oeste 0 -- -- 76
2020-03-04 19:00:00 16.6 9 Oeste 28 Oeste 0 -- -- 68
2020-03-04 18:00:00 19 18 Oeste 41 Oeste 0 -- -- 57
2020-03-04 17:00:00 19.2 22 Oeste 47 Oeste 0 -- -- 57
2020-03-04 16:00:00 19.5 27 Oeste 48 Oeste 0 -- -- 56
2020-03-04 15:00:00 19.4 31 Oeste 49 Oeste 0 -- -- 57
2020-03-04 14:00:00 18.8 28 Oeste 47 Oeste 0 -- -- 60
2020-03-04 13:00:00 17.6 23 Oeste 52 Oeste 0 -- -- 65
2020-03-04 12:00:00 16.8 27 Oeste 44 Oeste 0 -- -- 68
2020-03-04 11:00:00 13.9 9 Oeste 22 Oeste 0 -- -- 70
2020-03-04 10:00:00 11.5 9 Oeste 16 Oeste 0 -- -- 77
2020-03-04 09:00:00 10.8 9 Oeste 23 Oeste 0 -- -- 78
2020-03-04 08:00:00 10.1 16 Oeste 26 Oeste 0 -- -- 77
2020-03-04 07:00:00 9.8 13 Oeste 25 Sudoeste 0 -- -- 77
2020-03-04 06:00:00 9.4 11 Oeste 23 Oeste 0 -- -- 76
2020-03-04 05:00:00 9.4 15 Oeste 25 Oeste 0 -- -- 73
2020-03-04 04:00:00 8.9 15 Oeste 29 Sudoeste 0 -- -- 76
2020-03-04 03:00:00 8.9 10 Sudoeste 35 Oeste 0 -- -- 75
2020-03-04 02:00:00 9.6 21 Oeste 45 Oeste 0 -- -- 71
2020-03-04 01:00:00 10 30 Oeste 48 Oeste 0 -- -- 68
2020-03-04 00:00:00 9.7 22 Oeste 40 Oeste 0 -- -- 69
2020-03-03 23:00:00 9.8 17 Oeste 38 Noroeste 0 -- -- 69
2020-03-03 22:00:00 10.5 18 Oeste 55 Oeste 0 -- -- 65
2020-03-03 21:00:00 11.8 32 Oeste 58 Oeste 0 -- -- 60
2020-03-03 20:00:00 12.1 35 Oeste 68 Oeste 0 -- -- 62
2020-03-03 19:00:00 13.4 41 Oeste 72 Oeste 0 -- -- 59
2020-03-03 18:00:00 14 31 Noroeste 51 Oeste 0 -- -- 64
2020-03-03 17:00:00 12.3 18 Oeste 37 Oeste 0.2 -- -- 76
2020-03-03 16:00:00 11 10 Oeste 20 Oeste 0 -- -- 79
2020-03-03 15:00:00 9.2 6 Noroeste 14 Noroeste 0 -- -- 83
2020-03-03 14:00:00 7.7 8 Norte 14 Norte 0 -- -- 87
2020-03-03 13:00:00 7.8 5 Norte 12 Nordeste 0 -- -- 88
2020-03-03 12:00:00 7.1 4 Nordeste 8 Norte 0.4 -- -- 90
2020-03-03 11:00:00 6.7 5 Nordeste 8 Nordeste 1.2 -- -- 87
2020-03-03 10:00:00 6.6 0 Calma 5 Noroeste 0.4 -- -- 82
2020-03-03 09:00:00 4.8 4 Noroeste 9 Noroeste 0 -- -- 85
2020-03-03 08:00:00 4.1 5 Noroeste 14 Oeste 0 -- -- 79
2020-03-03 07:00:00 4.3 6 Oeste 14 Oeste 0 -- -- 76
2020-03-03 06:00:00 4.1 9 Oeste 18 Oeste 0 -- -- 76
2020-03-03 05:00:00 4.1 12 Oeste 20 Oeste 0 -- -- 75
2020-03-03 04:00:00 4.5 9 Oeste 22 Oeste 0 -- -- 76
2020-03-03 03:00:00 5.2 12 Oeste 24 Oeste 0 -- -- 73
2020-03-03 02:00:00 5.1 16 Oeste 31 Oeste 0 -- -- 75
2020-03-03 01:00:00 5.4 16 Oeste 34 Oeste 0 -- -- 74
2020-03-03 00:00:00 5.4 14 Noroeste 45 Oeste 0 -- -- 75
2020-03-02 23:00:00 5.9 25 Oeste 55 Oeste 0 -- -- 71
2020-03-02 22:00:00 6.2 27 Oeste 47 Noroeste 0 -- -- 69
2020-03-02 21:00:00 6.8 28 Oeste 50 Oeste 0 -- -- 65
2020-03-02 20:00:00 7.5 28 Oeste 47 Oeste 0 -- -- 59
2020-03-02 19:00:00 8.4 29 Oeste 58 Oeste 0 -- -- 57
2020-03-02 18:00:00 10 28 Noroeste 58 Noroeste 0 -- -- 54
2020-03-02 17:00:00 11 34 Oeste 64 Noroeste 0 -- -- 54
2020-03-02 16:00:00 11.1 31 Noroeste 65 Oeste 0 -- -- 56
2020-03-02 15:00:00 11.8 38 Oeste 61 Oeste 0 -- -- 55
2020-03-02 14:00:00 12.4 37 Oeste 65 Oeste 0 -- -- 54
2020-03-02 13:00:00 12.4 34 Oeste 67 Oeste 0 -- -- 58
2020-03-02 12:00:00 11.5 35 Oeste 73 Oeste 0 -- -- 64
2020-03-02 11:00:00 9.5 29 Oeste 63 Oeste 0.8 -- -- 81
2020-03-02 10:00:00 9.5 36 Oeste 62 Oeste 0 -- -- 79
2020-03-02 09:00:00 10.1 31 Oeste 54 Oeste 0 -- -- 79
2020-03-02 08:00:00 9.2 29 Oeste 77 Oeste 2 -- -- 89
2020-03-02 07:00:00 15 23 Sudoeste 39 Sudoeste 0 -- -- 66
2020-03-02 06:00:00 12.9 6 Sudoeste 15 Sur 0 -- -- 77
2020-03-02 05:00:00 11.5 5 Sudeste 8 Sudeste 0.2 -- -- 84
2020-03-02 04:00:00 11.5 4 Sudeste 14 Sur 0.2 -- -- 84
2020-03-02 03:00:00 11.7 9 Sudeste 17 Sudeste 0.6 -- -- 81
2020-03-02 02:00:00 12.1 13 Sudeste 20 Sudeste 0 -- -- 77
2020-03-02 01:00:00 12.2 10 Sudeste 15 Sudeste 0 -- -- 78
2020-03-02 00:00:00 11.6 5 Este 9 Este 0 -- -- 82
2020-03-01 23:00:00 11.6 3 Nordeste 7 Norte 0 -- -- 81
2020-03-01 22:00:00 11.9 2 Este 5 Nordeste 0 -- -- 79
2020-03-01 21:00:00 12.4 3 Sudeste 9 Sudeste 0.2 -- -- 79
2020-03-01 20:00:00 13.1 0 Calma 56 Oeste 0.4 -- -- 76
2020-03-01 19:00:00 16.1 10 Sudoeste 29 Oeste 0 -- -- 51
2020-03-01 18:00:00 18.4 17 Sudoeste 39 Oeste 0 -- -- 45
2020-03-01 17:00:00 19.1 20 Oeste 53 Oeste 0 -- -- 36
2020-03-01 16:00:00 19.7 20 Oeste 49 Oeste 0 -- -- 37
2020-03-01 15:00:00 19 24 Oeste 48 Oeste 0 -- -- 42
2020-03-01 14:00:00 18 27 Oeste 50 Oeste 0 -- -- 47
2020-03-01 13:00:00 17.2 22 Oeste 44 Sudoeste 0 -- -- 47
2020-03-01 12:00:00 16 17 Oeste 35 Sudoeste 0 -- -- 51
2020-03-01 11:00:00 15.5 14 Oeste 30 Sudoeste 0 -- -- 53
2020-03-01 10:00:00 14 12 Oeste 28 Oeste 0 -- -- 58
2020-03-01 09:00:00 12.5 6 Sudoeste 13 Oeste 0 -- -- 61
2020-03-01 08:00:00 10.4 0 Calma 16 Oeste 0 -- -- 68
2020-03-01 07:00:00 10.8 7 Oeste 21 Oeste 0 -- -- 63
2020-03-01 06:00:00 10.5 6 Oeste 16 Oeste 0 -- -- 65
2020-03-01 05:00:00 10.9 10 Oeste 17 Oeste 0 -- -- 62
2020-03-01 04:00:00 11 5 Oeste 21 Oeste 0 -- -- 60
2020-03-01 03:00:00 11 9 Oeste 17 Oeste 0 -- -- 61
2020-03-01 02:00:00 10.9 8 Oeste 19 Oeste 0 -- -- 67
2020-03-01 01:00:00 11 13 Oeste 22 Noroeste 0 -- -- 69
2020-03-01 00:00:00 11.3 10 Oeste 29 Oeste 0 -- -- 74
2020-02-29 23:00:00 13.6 18 Oeste 30 Oeste 0 -- -- 56
2020-02-29 22:00:00 14.5 14 Oeste 27 Oeste 0 -- -- 63
2020-02-29 21:00:00 13.9 8 Sudoeste 16 Sudoeste 0 -- -- 68
2020-02-29 20:00:00 14.8 0 Calma 16 Oeste 0 -- -- 65
2020-02-29 19:00:00 15.6 6 Oeste 13 Oeste 0 -- -- 61
2020-02-29 18:00:00 16.7 8 Oeste 17 Oeste 0 -- -- 58
2020-02-29 17:00:00 17.3 9 Sudoeste 17 Sudoeste 0 -- -- 55
2020-02-29 16:00:00 17.3 6 Sudoeste 13 Sudoeste 0 -- -- 53
2020-02-29 15:00:00 16.9 6 Sur 12 Sur 0 -- -- 61
2020-02-29 14:00:00 14.5 3 Sudeste 9 Sudeste 0 -- -- 70
2020-02-29 13:00:00 13.4 2 Este 10 Este 0 -- -- 74
2020-02-29 12:00:00 13.2 7 Sudeste 13 Sudeste 0 -- -- 75
2020-02-29 11:00:00 12.1 8 Sudeste 12 Sudeste 0 -- -- 82
2020-02-29 10:00:00 9.6 4 Norte 9 Norte 0 -- -- 96
2020-02-29 09:00:00 7 0 Calma 5 Sudoeste 0 -- -- 98
2020-02-29 08:00:00 6.1 3 Noroeste 8 Oeste 0 -- -- 97
2020-02-29 07:00:00 6.4 2 Sudoeste 5 Noroeste 0 -- -- 96
2020-02-29 06:00:00 6.7 0 Calma 6 Oeste 0 -- -- 96
2020-02-29 05:00:00 6.9 3 Oeste 6 Oeste 0 -- -- 95
2020-02-29 04:00:00 7.1 0 Calma 7 Oeste 0 -- -- 93
2020-02-29 03:00:00 8.1 4 Oeste 11 Sudeste 0 -- -- 91
2020-02-29 02:00:00 10 5 Este 15 Este 0 -- -- 85
2020-02-29 01:00:00 10.3 10 Este 24 Este 0 -- -- 86
2020-02-29 00:00:00 10.4 10 Este 18 Este 0 -- -- 88